Freeport, IL

12:14 AM CDT on June 25, 2017 (GMT -0500)
Albertus

Weather History for KFEP - May, 2014

Change the Weather History Date:

Wednesday, May 7, 2014

  Actual Average Record
Temperature  
Mean Temperature 63 °F -  
Max Temperature 76 °F 69 °F 81 °F (1988)
Min Temperature 50 °F 43 °F 27 °F (1989)
Degree Days  
Heating Degree Days 2    
Growing Degree Days 13 (Base 50)    
Moisture  
Dew Point 46 °F    
Average Humidity 64    
Maximum Humidity 87    
Minimum Humidity 53    
Precipitation  
Precipitation 0.00 in - - ()
Sea Level Pressure  
Sea Level Pressure 29.80 in    
Wind  
Wind Speed 13 mph (East)    
Max Wind Speed 20 mph    
Max Gust Speed 26 mph    
Visibility 10 miles    
Events Thunderstorm    
Averages and records for this station are not official NWS values.
T = Trace of Precipitation, MM = Missing Value Source: NWS Daily Summary

Daily Weather History Graph

Daily Weather History Graph

Search for Another Location

Airport or City:

Trip Planner

Search our weather history database for the weather conditions in past years. The results will help you decide how hot, cold, wet, or windy it might be!

Date:

Astronomy

May. 07, 2014 Rise Set
Actual Time 5:46 AM CDT 8:04 PM CDT
Civil Twilight 5:14 AM CDT 8:35 PM CDT
Nautical Twilight 4:36 AM CDT 9:14 PM CDT
Astronomical Twilight 3:53 AM CDT 9:57 PM CDT
Moon 1:01 PM CDT (5/7) 1:53 AM CDT (5/7)
Length of Visible Light 15h 20m
Length of Day
14h 18m
First Quarter, 55% of the Moon is Illuminated
May 7
First Quarter
May 14
Full
May 21
Last Quarter
May 28
New
Jun 5
First Quarter

Hourly Weather History & Observations

Time (CDT) Temp. Dew Point Humidity Pressure Visibility Wind Dir Wind Speed Gust Speed Precip Events Conditions
12:15 AM 50.9 °F 38.5 °F 62% 29.85 in 10.0 mi ENE 11.5 mph - N/A   Mostly Cloudy
12:35 AM 50.9 °F 39.2 °F 64% 29.84 in 10.0 mi East 10.4 mph - N/A   Mostly Cloudy
12:55 AM 50.9 °F 38.3 °F 62% 29.84 in 10.0 mi East 12.7 mph - N/A   Mostly Cloudy
1:15 AM 51.8 °F 38.1 °F 60% 29.82 in 10.0 mi East 17.3 mph - N/A   Mostly Cloudy
1:35 AM 53.2 °F 38.1 °F 57% 29.81 in 10.0 mi East 16.1 mph - N/A   Scattered Clouds
1:55 AM 53.2 °F 38.7 °F 58% 29.81 in 10.0 mi East 13.8 mph - N/A   Mostly Cloudy
2:15 AM 53.2 °F 38.5 °F 57% 29.80 in 10.0 mi East 15.0 mph - N/A   Overcast
2:35 AM 53.2 °F 38.3 °F 57% 29.79 in 10.0 mi East 13.8 mph 20.7 mph N/A   Overcast
2:55 AM 53.2 °F 38.7 °F 58% 29.78 in 10.0 mi East 12.7 mph 19.6 mph N/A   Overcast
3:15 AM 53.2 °F 38.7 °F 58% 29.78 in 10.0 mi East 15.0 mph - N/A   Mostly Cloudy
3:35 AM 53.2 °F 38.7 °F 58% 29.78 in 10.0 mi ESE 16.1 mph - N/A   Scattered Clouds
3:55 AM 53.2 °F 39.2 °F 59% 29.78 in 10.0 mi East 15.0 mph - N/A   Clear
4:15 AM 52.5 °F 39.0 °F 60% 29.78 in 10.0 mi East 12.7 mph - N/A   Clear
4:35 AM 50.9 °F 39.0 °F 64% 29.78 in 10.0 mi East 10.4 mph - N/A   Clear
4:55 AM 50.9 °F 39.2 °F 64% 29.78 in 10.0 mi East 10.4 mph - N/A   Clear
5:15 AM 50.9 °F 39.6 °F 65% 29.78 in 10.0 mi East 10.4 mph - N/A   Clear
5:35 AM 50.9 °F 40.1 °F 67% 29.79 in 10.0 mi East 11.5 mph - N/A   Clear
5:55 AM 50.9 °F 39.7 °F 66% 29.79 in 10.0 mi East 10.4 mph - N/A   Clear
6:15 AM 50.9 °F 41.2 °F 69% 29.80 in 10.0 mi East 11.5 mph - N/A   Clear
6:35 AM 50.9 °F 40.8 °F 68% 29.81 in 10.0 mi East 11.5 mph - N/A   Clear
6:55 AM 50.9 °F 39.4 °F 65% 29.82 in 10.0 mi East 12.7 mph - N/A   Clear
7:15 AM 50.9 °F 39.4 °F 65% 29.82 in 10.0 mi East 12.7 mph - N/A   Clear
7:35 AM 50.9 °F 39.0 °F 64% 29.83 in 10.0 mi East 13.8 mph 18.4 mph N/A   Clear
7:55 AM 50.9 °F 39.0 °F 64% 29.82 in 10.0 mi East 15.0 mph - N/A   Clear
8:15 AM 50.9 °F 39.6 °F 65% 29.82 in 10.0 mi East 12.7 mph - N/A   Clear
8:35 AM 52.0 °F 39.9 °F 63% 29.82 in 10.0 mi East 16.1 mph - N/A   Clear
8:55 AM 53.2 °F 41.0 °F 63% 29.84 in 10.0 mi East 16.1 mph - N/A   Clear
9:15 AM 55.8 °F 42.8 °F 62% 29.85 in 10.0 mi East 17.3 mph - N/A   Clear
9:35 AM 55.8 °F 43.2 °F 63% 29.86 in 10.0 mi East 10.4 mph - N/A   Clear
9:55 AM 55.8 °F 43.5 °F 63% 29.85 in 10.0 mi East 11.5 mph - N/A   Clear
10:15 AM 55.8 °F 43.5 °F 63% 29.82 in 10.0 mi East 13.8 mph - N/A   Clear
10:35 AM 55.8 °F 43.5 °F 63% 29.81 in 10.0 mi East 13.8 mph - N/A   Clear
10:55 AM 55.8 °F 43.7 °F 64% 29.80 in 10.0 mi ESE 11.5 mph - N/A   Clear
11:15 AM 58.3 °F 45.5 °F 62% 29.80 in 10.0 mi SE 12.7 mph 18.4 mph N/A   Clear
11:35 AM 58.3 °F 45.1 °F 62% 29.81 in 10.0 mi ESE 6.9 mph - N/A   Clear
11:55 AM 62.4 °F 47.1 °F 57% 29.79 in 10.0 mi ESE 16.1 mph - N/A   Clear
12:15 PM 66.7 °F 49.8 °F 54% 29.77 in 10.0 mi ESE 17.3 mph 23.0 mph N/A   Clear
12:35 PM 68.2 °F 51.8 °F 56% 29.75 in 10.0 mi ESE 19.6 mph 26.5 mph N/A   Clear
12:55 PM 71.1 °F 54.3 °F 55% 29.78 in 10.0 mi SE 13.8 mph 19.6 mph N/A   Clear
1:15 PM 71.1 °F 54.5 °F 56% 29.82 in 10.0 mi SSE 10.4 mph 18.4 mph N/A   Mostly Cloudy
1:35 PM 71.1 °F 56.5 °F 60% 29.83 in 10.0 mi South 12.7 mph - N/A   Overcast
1:55 PM 71.1 °F 57.2 °F 61% 29.84 in 10.0 mi South 11.5 mph - N/A   Overcast
2:15 PM 73.6 °F 58.3 °F 59% 29.82 in 10.0 mi South 8.1 mph - N/A   Mostly Cloudy
2:35 PM 76.1 °F 59.5 °F 56% 29.80 in 10.0 mi SE 12.7 mph - N/A Thunderstorm Clear
2:55 PM 76.1 °F 60.1 °F 57% 29.79 in 10.0 mi ESE 10.4 mph - N/A Thunderstorm Clear
3:15 PM 74.5 °F 59.4 °F 59% 29.79 in 10.0 mi SE 11.5 mph - N/A Thunderstorm Thunderstorm
3:35 PM 73.6 °F 59.2 °F 61% 29.74 in 10.0 mi East 15.0 mph - N/A   Clear
3:55 PM 73.6 °F 59.0 °F 60% 29.75 in 10.0 mi ENE 11.5 mph - N/A   Clear
4:15 PM 75.9 °F 59.9 °F 57% 29.76 in 10.0 mi ENE 13.8 mph 18.4 mph N/A   Clear
4:35 PM 73.4 °F 58.1 °F 59% 29.76 in 10.0 mi East 16.1 mph - N/A   Clear
4:55 PM 72.1 °F 56.3 °F 57% 29.77 in 10.0 mi East 16.1 mph - N/A   Clear
5:15 PM 73.4 °F 55.4 °F 53% 29.77 in 10.0 mi ENE 16.1 mph - N/A   Clear
5:35 PM 71.1 °F 53.2 °F 53% 29.76 in 10.0 mi East 17.3 mph - N/A   Clear
5:55 PM 71.1 °F 53.2 °F 53% 29.76 in 10.0 mi ENE 17.3 mph - N/A   Clear
6:15 PM 68.5 °F 52.0 °F 55% 29.77 in 10.0 mi ENE 16.1 mph - N/A   Clear
6:35 PM 64.2 °F 49.3 °F 58% 29.77 in 10.0 mi ENE 15.0 mph - N/A   Clear
6:55 PM 63.5 °F 49.1 °F 59% 29.78 in 10.0 mi East 13.8 mph - N/A   Clear
7:15 PM 62.2 °F 48.6 °F 61% 29.78 in 10.0 mi East 15.0 mph - N/A   Clear
7:35 PM 60.8 °F 48.6 °F 64% 29.77 in 10.0 mi East 13.8 mph - N/A   Clear
7:55 PM 58.6 °F 47.7 °F 67% 29.78 in 10.0 mi East 12.7 mph - N/A   Clear
8:15 PM 58.3 °F 48.6 °F 70% 29.78 in 10.0 mi East 11.5 mph - N/A   Clear
8:35 PM 57.2 °F 48.2 °F 72% 29.78 in 10.0 mi East 13.8 mph - N/A   Clear
8:55 PM 56.1 °F 47.7 °F 73% 29.78 in 10.0 mi East 12.7 mph - N/A   Clear
9:15 PM 55.8 °F 48.2 °F 76% 29.78 in 10.0 mi East 8.1 mph - N/A   Clear
9:35 PM 55.8 °F 49.5 °F 79% 29.79 in 10.0 mi ESE 6.9 mph - N/A   Clear
9:55 PM 53.2 °F 47.8 °F 82% 29.79 in 10.0 mi East 9.2 mph - N/A   Clear
10:15 PM 53.2 °F 48.2 °F 83% 29.79 in 10.0 mi ESE 6.9 mph - N/A   Clear
10:35 PM 51.1 °F 46.6 °F 85% 29.79 in 10.0 mi East 6.9 mph - N/A   Clear
10:55 PM 50.9 °F 46.6 °F 85% 29.78 in 10.0 mi ESE 6.9 mph - N/A   Clear
11:15 PM 50.9 °F 46.6 °F 85% 29.78 in 10.0 mi East 8.1 mph - N/A   Clear
11:35 PM 50.9 °F 46.9 °F 86% 29.78 in 10.0 mi East 9.2 mph - N/A   Clear
11:55 PM 50.9 °F 47.3 °F 87% 29.78 in 10.0 mi East 4.6 mph - N/A   Clear